Time;durP1;ratioP1;P1;durP2;ratioP2;P2;SDS_P1;SDS_P2;PMS_P1;PMS_P2;Temp;Humidity;BMP_temperature;BMP_pressure;BME280_temperature;BME280_humidity;BME280_pressure;Samples;Min_cycle;Max_cycle;Signal;HPM_P1;HPM_P2
2023/06/12 00:01:14;;;;;;;6.15;3.40;;;21.10;61.40;;;;;;4954214;28;20310;-75
2023/06/12 00:03:42;;;;;;;4.30;3.22;;;21.10;61.40;;;;;;4957077;28;20226;-76
2023/06/12 00:06:10;;;;;;;4.80;3.03;;;21.10;61.40;;;;;;4972852;28;20230;-77
2023/06/12 00:08:41;;;;;;;3.70;3.33;;;21.10;61.40;;;;;;4973237;28;20281;-75
2023/06/12 00:11:09;;;;;;;4.32;3.38;;;21.10;61.40;;;;;;4973136;28;20223;-75
2023/06/12 00:13:36;;;;;;;5.30;3.42;;;21.10;61.40;;;;;;4973157;28;20194;-77
2023/06/12 00:16:04;;;;;;;5.35;3.50;;;21.00;61.30;;;;;;4973042;28;20228;-75
2023/06/12 00:18:32;;;;;;;4.25;3.78;;;21.00;61.30;;;;;;4973256;28;20203;-75
2023/06/12 00:20:59;;;;;;;5.22;3.40;;;21.10;61.40;;;;;;4956285;28;20218;-77
2023/06/12 00:23:26;;;;;;;5.75;3.72;;;21.00;61.30;;;;;;4955838;28;20568;-76
2023/06/12 00:25:52;;;;;;;4.53;3.75;;;21.00;61.30;;;;;;4972928;28;20226;-75
2023/06/12 00:28:19;;;;;;;4.63;3.50;;;21.10;61.40;;;;;;4973223;28;20202;-75
2023/06/12 00:30:46;;;;;;;8.00;3.95;;;21.10;61.40;;;;;;4972879;28;20289;-76
2023/06/12 00:33:13;;;;;;;5.55;3.63;;;21.10;61.40;;;;;;4972813;28;20657;-75
2023/06/12 00:35:42;;;;;;;5.55;3.85;;;21.00;61.30;;;;;;4972778;28;20195;-75
2023/06/12 00:38:09;;;;;;;7.00;4.25;;;21.00;61.30;;;;;;4972788;28;20700;-75
2023/06/12 00:40:37;;;;;;;5.78;3.63;;;21.00;61.30;;;;;;4972768;28;20197;-75
2023/06/12 00:43:05;;;;;;;5.82;4.05;;;21.00;61.30;;;;;;4973029;28;20554;-75
2023/06/12 00:45:32;;;;;;;6.63;4.07;;;21.00;61.30;;;;;;4973285;28;20199;-75
2023/06/12 00:47:59;;;;;;;6.82;4.03;;;21.00;61.30;;;;;;4972852;28;20219;-76
2023/06/12 00:50:27;;;;;;;4.88;4.10;;;21.00;61.30;;;;;;4972937;28;20201;-76
2023/06/12 00:52:58;;;;;;;8.15;4.07;;;21.00;61.30;;;;;;4973516;28;20281;-76
2023/06/12 00:55:25;;;;;;;5.88;4.22;;;21.00;61.30;;;;;;4976414;28;20190;-77
2023/06/12 00:57:52;;;;;;;5.95;4.13;;;21.00;61.30;;;;;;4976338;28;20226;-75
2023/06/12 01:00:20;;;;;;;6.30;3.97;;;21.00;61.30;;;;;;4976321;28;20225;-75
2023/06/12 01:02:50;;;;;;;6.15;4.05;;;21.00;61.30;;;;;;4976912;28;20297;-75
2023/06/12 01:05:20;;;;;;;5.65;4.22;;;21.00;61.30;;;;;;4976253;28;20191;-75
2023/06/12 01:07:53;;;;;;;7.43;4.50;;;21.00;61.30;;;;;;4975949;28;20760;-77
2023/06/12 01:10:27;;;;;;;6.13;4.55;;;21.00;61.30;;;;;;4976170;28;20201;-75
2023/06/12 01:12:55;;;;;;;6.47;3.83;;;21.00;61.30;;;;;;4975707;28;20244;-75
2023/06/12 01:15:22;;;;;;;7.47;4.25;;;21.00;61.30;;;;;;4958882;28;20699;-75
2023/06/12 01:17:49;;;;;;;8.02;4.15;;;21.00;61.30;;;;;;4975802;28;20223;-76
2023/06/12 01:20:17;;;;;;;5.15;3.45;;;21.00;61.30;;;;;;4990777;28;20738;-75
2023/06/12 01:22:51;;;;;;;5.95;3.72;;;21.00;61.30;;;;;;4975799;28;20225;-76
2023/06/12 01:25:51;;;;;;;6.20;3.88;;;21.00;61.30;;;;;;4975992;28;20191;-75
2023/06/12 01:28:43;;;;;;;5.40;4.28;;;21.00;61.30;;;;;;4958454;28;20735;-77
2023/06/12 01:31:15;;;;;;;5.60;4.10;;;21.00;61.30;;;;;;4975447;28;20693;-76
2023/06/12 01:33:54;;;;;;;4.32;3.35;;;21.00;61.30;;;;;;4975749;28;20197;-75
2023/06/12 01:36:27;;;;;;;5.60;3.78;;;21.00;61.30;;;;;;4975641;28;20222;-75
2023/06/12 01:38:59;;;;;;;5.07;3.42;;;21.00;61.30;;;;;;4958503;28;20252;-75
2023/06/12 01:41:29;;;;;;;5.78;4.00;;;21.00;61.30;;;;;;4975267;28;20767;-77
2023/06/12 01:43:56;;;;;;;5.97;4.07;;;21.00;61.30;;;;;;4975498;28;20661;-77
2023/06/12 01:46:23;;;;;;;5.78;3.47;;;21.00;61.30;;;;;;4975260;28;20768;-76
2023/06/12 01:48:51;;;;;;;4.38;3.38;;;21.00;61.30;;;;;;4975784;28;20203;-75
2023/06/12 01:51:18;;;;;;;5.68;3.85;;;21.00;61.30;;;;;;4975357;28;20219;-77
2023/06/12 01:53:45;;;;;;;5.15;3.60;;;21.00;61.30;;;;;;4958356;28;20195;-75
2023/06/12 01:56:14;;;;;;;4.93;3.70;;;21.00;61.30;;;;;;4975080;28;20305;-75
2023/06/12 01:58:41;;;;;;;6.20;4.10;;;21.00;61.30;;;;;;4975344;28;20206;-74
2023/06/12 02:01:08;;;;;;;5.35;3.65;;;21.00;61.30;;;;;;4957959;28;20325;-75
2023/06/12 02:03:36;;;;;;;6.03;4.13;;;20.90;61.20;;;;;;4957696;28;20195;-75
2023/06/12 02:06:05;;;;;;;6.13;3.80;;;21.00;61.30;;;;;;4957709;28;20253;-75
2023/06/12 02:08:32;;;;;;;6.05;3.78;;;21.00;61.30;;;;;;4974989;28;20225;-76
2023/06/12 02:10:59;;;;;;;6.28;3.97;;;21.00;61.30;;;;;;4974984;28;20224;-75
2023/06/12 02:13:26;;;;;;;4.97;3.63;;;21.00;61.30;;;;;;4975248;28;20199;-75
2023/06/12 02:15:53;;;;;;;5.55;3.70;;;21.00;61.30;;;;;;4957579;28;20777;-74
2023/06/12 02:18:21;;;;;;;5.25;3.90;;;21.00;61.30;;;;;;4975016;28;20198;-75
2023/06/12 02:20:49;;;;;;;5.97;3.95;;;21.00;62.10;;;;;;4974848;28;20198;-76
2023/06/12 02:23:17;;;;;;;5.97;4.00;;;21.00;61.30;;;;;;4974950;28;20191;-75
2023/06/12 02:25:44;;;;;;;4.18;3.60;;;21.00;61.30;;;;;;4974515;28;20569;-75
2023/06/12 02:28:11;;;;;;;6.50;4.00;;;21.00;61.30;;;;;;4974369;28;20218;-76
2023/06/12 02:30:38;;;;;;;6.93;4.20;;;20.90;61.20;;;;;;4957702;28;20230;-75
2023/06/12 02:33:09;;;;;;;6.53;4.00;;;20.90;61.20;;;;;;4957637;28;20191;-75
2023/06/12 02:35:36;;;;;;;5.68;3.88;;;20.90;61.20;;;;;;4974312;28;20199;-75
2023/06/12 02:38:03;;;;;;;7.07;4.25;;;21.00;61.30;;;;;;4974602;28;20215;-74
2023/06/12 02:40:32;;;;;;;7.25;4.13;;;20.90;61.20;;;;;;4974420;28;20194;-76
2023/06/12 02:42:58;;;;;;;6.10;3.95;;;20.90;61.20;;;;;;4974390;28;20225;-76
2023/06/12 02:45:26;;;;;;;6.10;3.72;;;20.90;61.20;;;;;;4974094;28;20209;-75
2023/06/12 02:47:53;;;;;;;5.32;3.92;;;20.90;61.20;;;;;;4974123;28;20280;-76
2023/06/12 02:50:20;;;;;;;5.57;4.00;;;20.90;61.20;;;;;;4974065;28;20657;-75
2023/06/12 02:52:47;;;;;;;5.68;3.80;;;20.90;61.20;;;;;;4974198;28;20306;-75
2023/06/12 02:55:14;;;;;;;5.85;3.70;;;20.90;61.20;;;;;;4974302;28;20195;-75
2023/06/12 02:57:42;;;;;;;4.88;3.67;;;20.90;61.20;;;;;;4973893;28;20593;-76
2023/06/12 03:00:12;;;;;;;6.07;3.97;;;20.90;61.20;;;;;;4974433;28;20186;-75
2023/06/12 03:02:42;;;;;;;5.18;3.97;;;20.90;61.20;;;;;;4971298;28;20254;-75
2023/06/12 03:05:12;;;;;;;4.80;3.70;;;20.90;61.20;;;;;;4974087;28;20197;-74
2023/06/12 03:07:40;;;;;;;5.53;3.85;;;20.90;61.20;;;;;;4973893;28;20231;-75
2023/06/12 03:10:08;;;;;;;4.35;3.60;;;20.90;61.20;;;;;;4974269;28;20269;-75
2023/06/12 03:12:35;;;;;;;5.03;3.13;;;20.90;61.20;;;;;;4974008;28;20229;-74
2023/06/12 03:15:04;;;;;;;4.05;3.30;;;20.90;61.20;;;;;;4973890;28;20190;-75
2023/06/12 03:17:31;;;;;;;4.28;3.22;;;20.90;61.20;;;;;;4973519;28;20250;-76
2023/06/12 03:19:58;;;;;;;4.35;3.28;;;20.90;61.20;;;;;;4973650;28;20202;-75
2023/06/12 03:22:26;;;;;;;3.78;3.13;;;20.90;61.20;;;;;;4973654;28;20732;-76
2023/06/12 03:24:53;;;;;;;3.55;3.25;;;20.90;61.20;;;;;;4988677;28;20195;-75
2023/06/12 03:27:22;;;;;;;3.45;3.08;;;20.90;61.20;;;;;;4973794;28;20237;-75
2023/06/12 03:29:49;;;;;;;4.20;2.90;;;20.90;61.20;;;;;;4973761;28;20206;-75
2023/06/12 03:32:17;;;;;;;3.70;3.00;;;20.90;61.20;;;;;;4973724;28;20226;-75
2023/06/12 03:34:46;;;;;;;3.63;3.15;;;20.90;61.20;;;;;;4973782;28;20195;-75
2023/06/12 03:37:13;;;;;;;3.45;3.15;;;20.90;61.20;;;;;;4973231;28;20705;-75
2023/06/12 03:39:40;;;;;;;3.33;2.80;;;20.90;61.20;;;;;;4973243;28;20649;-75
2023/06/12 03:42:07;;;;;;;3.55;2.83;;;20.90;61.20;;;;;;4956267;28;20321;-76
2023/06/12 03:44:34;;;;;;;3.97;3.30;;;20.90;61.20;;;;;;4973596;28;20562;-75
2023/06/12 03:47:01;;;;;;;3.40;3.10;;;20.90;61.20;;;;;;4973696;28;20250;-75
2023/06/12 03:49:29;;;;;;;3.40;2.95;;;20.90;61.20;;;;;;4973145;28;20187;-75
2023/06/12 03:51:56;;;;;;;3.83;3.10;;;20.90;61.20;;;;;;4973859;28;20219;-76
2023/06/12 03:54:23;;;;;;;3.55;2.80;;;20.80;61.10;;;;;;4973414;28;20190;-75
2023/06/12 03:56:50;;;;;;;3.63;3.10;;;20.90;61.20;;;;;;4973141;28;20767;-74
2023/06/12 03:59:18;;;;;;;3.25;2.95;;;20.90;61.20;;;;;;4973140;28;20198;-75
2023/06/12 04:01:48;;;;;;;3.63;3.00;;;20.80;61.10;;;;;;4973506;28;20219;-75
2023/06/12 04:04:15;;;;;;;3.35;2.97;;;20.90;61.10;;;;;;4973438;28;20186;-75
2023/06/12 04:06:45;;;;;;;3.47;2.80;;;20.90;61.20;;;;;;4973484;28;20615;-76
2023/06/12 04:09:14;;;;;;;2.67;2.47;;;20.80;61.00;;;;;;4973216;28;20218;-75
2023/06/12 04:11:41;;;;;;;3.10;2.80;;;20.80;61.00;;;;;;4973312;28;20218;-75
2023/06/12 04:14:08;;;;;;;2.50;2.30;;;20.80;61.00;;;;;;4972920;28;20568;-76
2023/06/12 04:16:35;;;;;;;2.88;2.35;;;20.80;61.00;;;;;;4973397;28;20222;-76
2023/06/12 04:19:03;;;;;;;2.88;2.33;;;20.80;61.00;;;;;;4973209;28;20191;-75
2023/06/12 04:21:32;;;;;;;2.90;2.60;;;20.80;61.00;;;;;;4973290;28;20218;-75
2023/06/12 04:24:02;;;;;;;2.90;2.60;;;20.80;61.00;;;;;;4972855;28;20187;-76
2023/06/12 04:26:29;;;;;;;3.10;2.60;;;20.80;61.00;;;;;;4973479;28;20215;-75
2023/06/12 04:28:57;;;;;;;3.03;2.45;;;20.80;61.00;;;;;;4976944;28;20218;-75
2023/06/12 04:31:26;;;;;;;2.40;2.20;;;20.80;60.90;;;;;;4976563;28;20226;-75
2023/06/12 04:33:54;;;;;;;2.67;2.33;;;20.80;60.90;;;;;;4976840;28;20195;-76
2023/06/12 04:36:22;;;;;;;2.47;2.28;;;20.80;60.90;;;;;;4975435;28;20225;-76
2023/06/12 04:38:50;;;;;;;3.55;2.50;;;20.80;60.90;;;;;;4976908;28;20262;-77
2023/06/12 04:41:19;;;;;;;2.30;2.10;;;20.80;60.90;;;;;;4975985;28;20775;-77
2023/06/12 04:43:48;;;;;;;3.20;2.60;;;20.80;60.90;;;;;;4959047;28;20202;-76
2023/06/12 04:46:17;;;;;;;2.30;2.00;;;20.80;60.90;;;;;;4976173;28;20210;-75
2023/06/12 04:48:45;;;;;;;2.40;2.20;;;20.80;60.90;;;;;;4976150;28;20313;-75
2023/06/12 04:51:13;;;;;;;2.40;2.20;;;20.80;60.90;;;;;;4976240;28;20198;-76
2023/06/12 04:53:40;;;;;;;2.38;2.17;;;20.80;60.80;;;;;;4976366;28;20191;-77
2023/06/12 04:56:08;;;;;;;2.08;1.88;;;20.80;60.80;;;;;;4976174;28;20186;-74
2023/06/12 04:58:40;;;;;;;2.55;2.10;;;20.80;60.80;;;;;;4975998;28;20546;-76
2023/06/12 05:01:07;;;;;;;2.28;2.08;;;20.80;60.70;;;;;;4976066;28;20652;-75
2023/06/12 05:03:34;;;;;;;2.15;1.95;;;20.80;60.70;;;;;;4976239;28;20274;-75
2023/06/12 05:06:01;;;;;;;2.20;2.00;;;20.80;60.70;;;;;;4976315;28;20201;-76
2023/06/12 05:08:28;;;;;;;2.40;2.20;;;20.70;60.60;;;;;;4976196;28;20246;-75
2023/06/12 05:10:55;;;;;;;2.25;2.05;;;20.80;60.80;;;;;;4976230;28;20191;-74
2023/06/12 05:13:22;;;;;;;2.30;2.10;;;20.80;60.70;;;;;;4959202;28;20223;-75
2023/06/12 05:15:51;;;;;;;3.08;2.10;;;20.80;60.70;;;;;;4976128;28;20191;-75
2023/06/12 05:18:18;;;;;;;2.33;2.13;;;20.70;60.70;;;;;;4975981;28;20222;-75
2023/06/12 05:20:45;;;;;;;2.30;2.10;;;20.80;60.70;;;;;;4975807;28;20653;-75
2023/06/12 05:23:12;;;;;;;2.40;2.20;;;20.70;60.60;;;;;;4958942;28;20221;-76
2023/06/12 05:25:39;;;;;;;3.08;2.67;;;20.70;60.60;;;;;;4976011;28;20198;-75
2023/06/12 05:28:06;;;;;;;2.30;2.10;;;20.80;60.70;;;;;;4975866;28;20238;-76
2023/06/12 05:30:32;;;;;;;2.33;2.10;;;20.70;60.60;;;;;;4975953;28;20274;-76
2023/06/12 05:33:01;;;;;;;2.50;2.30;;;20.70;60.60;;;;;;4975940;28;20222;-76
2023/06/12 05:35:28;;;;;;;2.83;2.50;;;20.80;60.70;;;;;;4975734;28;20191;-75
2023/06/12 05:37:55;;;;;;;2.10;1.85;;;20.70;60.60;;;;;;4975902;28;20222;-75
2023/06/12 05:40:22;;;;;;;2.40;2.15;;;20.70;60.50;;;;;;4941620;28;20205;-76
2023/06/12 05:42:48;;;;;;;2.92;2.70;;;20.70;60.50;;;;;;4975267;28;20739;-75
2023/06/12 05:45:16;;;;;;;2.42;2.22;;;20.80;60.70;;;;;;4975464;28;20313;-75
2023/06/12 05:47:42;;;;;;;2.50;2.20;;;20.70;60.50;;;;;;4958488;28;20321;-75
2023/06/12 05:50:12;;;;;;;2.60;2.40;;;20.80;60.70;;;;;;4975569;28;20202;-75
2023/06/12 05:52:39;;;;;;;3.05;2.80;;;20.70;60.60;;;;;;4975513;28;20226;-75
2023/06/12 05:55:06;;;;;;;2.50;2.30;;;20.70;60.50;;;;;;4975570;28;20539;-74
2023/06/12 05:57:34;;;;;;;2.05;1.85;;;20.80;60.70;;;;;;4975519;28;20297;-75
2023/06/12 06:00:02;;;;;;;2.90;2.30;;;20.70;61.40;;;;;;4975241;28;20191;-75
2023/06/12 06:02:30;;;;;;;2.70;2.30;;;20.70;60.60;;;;;;4958388;28;20249;-75
2023/06/12 06:04:57;;;;;;;2.45;2.25;;;20.70;60.60;;;;;;4974840;28;20628;-75
2023/06/12 06:07:26;;;;;;;2.30;2.10;;;20.70;60.60;;;;;;4975222;28;20222;-75
2023/06/12 06:09:53;;;;;;;2.45;2.25;;;20.70;60.60;;;;;;4974722;28;20667;-76
2023/06/12 06:12:20;;;;;;;2.25;2.05;;;20.70;60.60;;;;;;4957621;28;20222;-75
2023/06/12 06:14:47;;;;;;;2.53;2.30;;;20.70;60.60;;;;;;4974692;28;20195;-75
2023/06/12 06:17:14;;;;;;;2.85;2.55;;;20.70;60.60;;;;;;4974483;28;20218;-75
2023/06/12 06:19:41;;;;;;;2.60;2.40;;;20.70;60.70;;;;;;4974800;28;20675;-75
2023/06/12 06:22:08;;;;;;;2.40;2.20;;;20.70;60.60;;;;;;4974604;28;20599;-75
2023/06/12 06:24:36;;;;;;;2.65;2.00;;;20.70;60.50;;;;;;4974802;28;20186;-75
2023/06/12 06:27:04;;;;;;;2.83;2.50;;;20.70;60.60;;;;;;4974629;28;20223;-75
2023/06/12 06:29:32;;;;;;;2.75;2.40;;;20.70;60.60;;;;;;4974603;28;20313;-76
2023/06/12 06:31:59;;;;;;;2.20;2.00;;;20.70;60.60;;;;;;4974486;28;20278;-75
2023/06/12 06:34:27;;;;;;;2.40;2.20;;;20.70;60.60;;;;;;4974620;28;20195;-77
2023/06/12 06:36:55;;;;;;;2.67;2.30;;;20.70;60.60;;;;;;4974680;28;20223;-76
2023/06/12 06:39:22;;;;;;;2.60;2.40;;;20.70;60.60;;;;;;4974626;28;20265;-76
2023/06/12 06:41:51;;;;;;;2.60;2.40;;;20.70;60.60;;;;;;4974108;28;20680;-75
2023/06/12 06:44:18;;;;;;;2.35;2.15;;;20.70;60.60;;;;;;4974409;28;20199;-75
2023/06/12 06:46:45;;;;;;;2.50;2.30;;;20.70;60.60;;;;;;4974301;28;20223;-77
2023/06/12 06:49:12;;;;;;;2.80;2.40;;;20.70;60.60;;;;;;4974240;28;20222;-76
2023/06/12 06:51:39;;;;;;;2.25;2.05;;;20.70;60.60;;;;;;4973077;28;20500;-76
2023/06/12 06:54:08;;;;;;;2.40;2.20;;;20.70;60.60;;;;;;4974320;28;20687;-75
2023/06/12 06:56:36;;;;;;;3.13;2.40;;;20.70;60.60;;;;;;4973820;28;20257;-76
2023/06/12 06:59:05;;;;;;;2.92;2.58;;;20.70;60.60;;;;;;4973924;28;20202;-75
2023/06/12 07:01:34;;;;;;;3.08;2.30;;;20.70;60.60;;;;;;4973822;28;20623;-75
2023/06/12 07:04:02;;;;;;;2.60;2.40;;;20.70;60.60;;;;;;4974138;28;20593;-75
2023/06/12 07:06:31;;;;;;;2.72;2.40;;;20.70;60.60;;;;;;4956770;28;20191;-75
2023/06/12 07:08:59;;;;;;;2.30;2.10;;;20.70;60.60;;;;;;4956750;28;20229;-75
2023/06/12 07:11:27;;;;;;;2.35;2.15;;;20.70;60.60;;;;;;4973992;28;20191;-76
2023/06/12 07:13:54;;;;;;;2.35;2.05;;;20.70;60.60;;;;;;4974104;28;20286;-75
2023/06/12 07:16:22;;;;;;;2.95;2.15;;;20.70;60.70;;;;;;4973888;28;20187;-75
2023/06/12 07:18:49;;;;;;;2.50;2.20;;;20.70;60.70;;;;;;4956762;28;20194;-75
2023/06/12 07:21:17;;;;;;;2.35;2.15;;;20.70;60.70;;;;;;4973670;28;20197;-76
2023/06/12 07:23:45;;;;;;;2.47;2.28;;;20.70;60.60;;;;;;4973853;28;20197;-77
2023/06/12 07:26:12;;;;;;;2.45;2.25;;;20.70;60.70;;;;;;4973575;28;20250;-75
2023/06/12 07:28:39;;;;;;;2.70;2.40;;;20.70;60.70;;;;;;4973567;28;20274;-75
2023/06/12 07:31:06;;;;;;;2.58;2.38;;;20.70;60.70;;;;;;4973758;28;20195;-75
2023/06/12 07:33:35;;;;;;;2.90;2.63;;;20.70;60.80;;;;;;4973739;28;20250;-76
2023/06/12 07:36:02;;;;;;;2.97;2.67;;;20.70;60.70;;;;;;4973580;28;20218;-75
2023/06/12 07:38:30;;;;;;;2.75;2.47;;;20.70;60.90;;;;;;4973891;28;20227;-75
2023/06/12 07:40:56;;;;;;;2.67;2.35;;;20.70;60.80;;;;;;4955983;28;20604;-75
2023/06/12 07:43:24;;;;;;;2.40;2.20;;;20.70;60.90;;;;;;4973569;28;20701;-75
2023/06/12 07:45:51;;;;;;;2.42;2.20;;;20.70;60.90;;;;;;4973517;28;20198;-76
2023/06/12 07:48:18;;;;;;;2.63;2.42;;;20.70;60.90;;;;;;4973721;28;20310;-75
2023/06/12 07:50:46;;;;;;;2.80;2.50;;;20.70;61.00;;;;;;4973573;28;20202;-75
2023/06/12 07:53:13;;;;;;;2.90;2.55;;;20.70;61.00;;;;;;4973394;28;20218;-76
2023/06/12 07:55:41;;;;;;;2.85;2.55;;;20.70;61.80;;;;;;4973513;28;20187;-75
2023/06/12 07:58:08;;;;;;;2.78;2.47;;;20.70;61.10;;;;;;4956087;28;20713;-76
2023/06/12 08:00:36;;;;;;;2.40;2.20;;;20.70;61.00;;;;;;4973196;28;20581;-75
2023/06/12 08:03:03;;;;;;;2.60;2.40;;;20.70;61.00;;;;;;4975452;28;20222;-75
2023/06/12 08:05:30;;;;;;;2.40;2.20;;;20.70;61.00;;;;;;4977359;28;20277;-76
2023/06/12 08:07:59;;;;;;;2.35;2.10;;;20.70;61.00;;;;;;4977546;28;20574;-75
2023/06/12 08:10:26;;;;;;;3.05;2.50;;;20.70;61.00;;;;;;4977259;28;20218;-74
2023/06/12 08:12:53;;;;;;;3.40;2.60;;;20.70;61.00;;;;;;4977071;28;20226;-77
2023/06/12 08:15:21;;;;;;;2.58;2.30;;;20.70;61.00;;;;;;4976872;28;20275;-76
2023/06/12 08:17:48;;;;;;;2.47;2.28;;;20.70;61.00;;;;;;4977167;28;20313;-75
2023/06/12 08:20:17;;;;;;;2.50;2.30;;;20.70;61.00;;;;;;4977195;28;20190;-76
2023/06/12 08:22:44;;;;;;;2.90;2.60;;;20.70;61.80;;;;;;4959982;28;20219;-75
2023/06/12 08:25:13;;;;;;;3.30;2.40;;;20.70;61.00;;;;;;4976905;28;20233;-75
2023/06/12 08:27:40;;;;;;;3.03;2.70;;;20.70;61.00;;;;;;4977066;28;20218;-75
2023/06/12 08:30:08;;;;;;;3.35;2.90;;;20.70;61.00;;;;;;4976891;28;20592;-75
2023/06/12 08:32:36;;;;;;;2.78;2.53;;;20.70;61.00;;;;;;4976749;28;20253;-76
2023/06/12 08:35:04;;;;;;;3.00;2.70;;;20.70;61.00;;;;;;4976628;28;20389;-75
2023/06/12 08:37:32;;;;;;;2.83;2.50;;;20.70;61.00;;;;;;4976930;28;20244;-77
2023/06/12 08:39:59;;;;;;;2.72;2.53;;;20.70;61.00;;;;;;4959755;28;20237;-75
2023/06/12 08:42:27;;;;;;;3.10;2.80;;;20.70;61.00;;;;;;4976510;28;20238;-76
2023/06/12 08:45:02;;;;;;;2.92;2.60;;;20.70;61.00;;;;;;4976750;28;20199;-75
2023/06/12 08:47:34;;;;;;;3.65;2.60;;;20.70;61.00;;;;;;4976743;28;20220;-75
2023/06/12 08:50:02;;;;;;;3.17;2.80;;;20.70;61.00;;;;;;4976730;28;20229;-77
2023/06/12 08:52:29;;;;;;;3.13;2.67;;;20.80;61.10;;;;;;4976716;28;20237;-76
2023/06/12 08:54:58;;;;;;;3.45;2.90;;;20.70;61.00;;;;;;4976396;28;20215;-77
2023/06/12 08:57:28;;;;;;;3.35;2.83;;;20.70;61.00;;;;;;4976405;28;20245;-76
2023/06/12 08:59:55;;;;;;;3.03;2.58;;;20.80;61.20;;;;;;4976043;28;20195;-76
2023/06/12 09:02:23;;;;;;;6.63;2.90;;;20.70;61.00;;;;;;4976245;28;20249;-75
2023/06/12 09:04:57;;;;;;;3.10;2.75;;;20.80;61.20;;;;;;4976128;28;20230;-76
2023/06/12 09:07:26;;;;;;;3.28;2.78;;;20.80;61.30;;;;;;4976211;28;20301;-76
2023/06/12 09:09:53;;;;;;;3.45;3.15;;;20.80;62.10;;;;;;4975978;28;20222;-76
2023/06/12 09:12:20;;;;;;;6.32;4.40;;;20.80;61.30;;;;;;4976178;28;20305;-76
2023/06/12 09:14:50;;;;;;;7.22;5.00;;;20.80;61.50;;;;;;4975042;28;20195;-77
2023/06/12 09:17:17;;;;;;;5.85;4.10;;;20.80;62.30;;;;;;4975764;28;20218;-74
2023/06/12 09:19:46;;;;;;;8.27;5.45;;;20.80;62.50;;;;;;4975836;28;20226;-75
2023/06/12 09:22:13;;;;;;;9.13;6.15;;;20.80;62.30;;;;;;4975882;28;20310;-75
2023/06/12 09:24:41;;;;;;;9.52;5.72;;;20.80;63.00;;;;;;4975905;28;20226;-81
2023/06/12 09:27:08;;;;;;;8.77;5.78;;;20.80;63.00;;;;;;4958542;28;20584;-81
2023/06/12 09:29:38;;;;;;;7.35;5.38;;;20.80;63.10;;;;;;4975344;28;20735;-76
2023/06/12 09:32:09;;;;;;;8.93;5.63;;;20.90;63.50;;;;;;4975681;28;20221;-75
2023/06/12 09:34:36;;;;;;;8.57;5.38;;;20.80;63.60;;;;;;4975826;28;20227;-76
2023/06/12 09:37:06;;;;;;;7.30;5.63;;;20.90;63.90;;;;;;4975630;28;20266;-78
2023/06/12 09:39:33;;;;;;;9.52;4.75;;;20.90;64.30;;;;;;4941727;28;20203;-76
2023/06/12 09:42:03;;;;;;;7.43;5.15;;;20.90;64.30;;;;;;4958336;28;20230;-77
2023/06/12 09:44:31;;;;;;;7.80;5.38;;;20.90;64.60;;;;;;4975216;28;20635;-75
2023/06/12 09:47:02;;;;;;;8.45;6.57;;;20.90;64.50;;;;;;4975564;28;20218;-84
2023/06/12 09:49:32;;;;;;;8.25;5.22;;;20.90;64.70;;;;;;4975492;28;20258;-81
2023/06/12 09:52:03;;;;;;;6.80;5.25;;;20.90;64.70;;;;;;4975290;28;20258;-80
2023/06/12 09:54:31;;;;;;;6.20;5.20;;;20.90;64.70;;;;;;4975394;28;20198;-80
2023/06/12 09:57:00;;;;;;;7.28;5.28;;;20.90;64.90;;;;;;4975056;28;20222;-80
2023/06/12 09:59:29;;;;;;;8.60;4.70;;;20.90;65.00;;;;;;4975323;28;20638;-78
2023/06/12 10:02:03;;;;;;;4.88;3.97;;;20.90;65.00;;;;;;4975094;28;20301;-75
2023/06/12 10:04:37;;;;;;;8.98;3.80;;;20.90;64.80;;;;;;4975256;28;20212;-77
2023/06/12 10:07:08;;;;;;;4.53;3.72;;;20.90;64.60;;;;;;4974876;28;20775;-78
2023/06/12 10:09:36;;;;;;;4.88;3.58;;;20.90;64.50;;;;;;4975099;28;20305;-77
2023/06/12 10:12:05;;;;;;;3.58;3.22;;;20.90;64.40;;;;;;4974987;28;20221;-76
2023/06/12 10:14:32;;;;;;;5.03;3.60;;;20.90;64.30;;;;;;4974947;28;20203;-75
2023/06/12 10:17:00;;;;;;;4.47;3.47;;;20.90;64.20;;;;;;4974630;28;20735;-76
2023/06/12 10:19:27;;;;;;;4.15;3.67;;;20.90;64.20;;;;;;4975003;28;20205;-78
2023/06/12 10:21:56;;;;;;;3.80;3.40;;;20.90;64.10;;;;;;4974512;28;20226;-75
2023/06/12 10:24:24;;;;;;;3.83;3.28;;;20.90;64.00;;;;;;4974908;28;20209;-77
2023/06/12 10:26:54;;;;;;;4.35;3.50;;;20.90;64.00;;;;;;4957640;28;20305;-77
2023/06/12 10:29:28;;;;;;;4.97;3.60;;;20.90;64.00;;;;;;4974569;28;20238;-75
2023/06/12 10:32:02;;;;;;;3.80;3.17;;;20.90;63.90;;;;;;4974640;28;20249;-76
2023/06/12 10:34:31;;;;;;;4.80;3.70;;;20.90;64.70;;;;;;4974603;28;20237;-76
2023/06/12 10:37:19;;;;;;;4.55;3.53;;;20.90;63.90;;;;;;4974935;28;20272;-76
2023/06/12 10:39:47;;;;;;;4.13;3.42;;;20.90;63.90;;;;;;4974685;28;20571;-77
2023/06/12 10:42:14;;;;;;;4.80;3.65;;;20.90;63.80;;;;;;4974495;28;20238;-74
2023/06/12 10:44:42;;;;;;;3.45;3.13;;;20.90;63.80;;;;;;4974212;28;20763;-77
2023/06/12 10:47:21;;;;;;;4.55;3.20;;;20.90;63.80;;;;;;4974461;28;20310;-76
2023/06/12 10:49:58;;;;;;;3.88;3.28;;;20.90;63.80;;;;;;4974439;28;20676;-76
2023/06/12 10:52:27;;;;;;;5.05;3.40;;;20.90;63.70;;;;;;4974228;28;20305;-76
2023/06/12 10:55:23;;;;;;;3.80;2.95;;;20.90;63.70;;;;;;4974430;28;20191;-77
2023/06/12 10:57:54;;;;;;;3.75;3.17;;;20.90;63.70;;;;;;4973958;28;20250;-75
2023/06/12 11:00:23;;;;;;;4.35;3.38;;;20.90;63.70;;;;;;4974125;28;20226;-75
2023/06/12 11:02:58;;;;;;;3.95;3.40;;;20.90;63.70;;;;;;4956981;28;20313;-76
2023/06/12 11:05:26;;;;;;;3.50;3.20;;;20.90;63.70;;;;;;4973976;28;20225;-77
2023/06/12 11:07:58;;;;;;;3.97;3.45;;;20.90;63.70;;;;;;4973887;28;20309;-75
2023/06/12 11:10:25;;;;;;;5.10;3.58;;;20.90;63.60;;;;;;4974016;28;20214;-76
2023/06/12 11:12:52;;;;;;;7.20;3.42;;;20.90;63.70;;;;;;4974084;28;20246;-75
2023/06/12 11:15:20;;;;;;;4.10;3.50;;;20.90;63.70;;;;;;4973691;28;20282;-75
2023/06/12 11:17:48;;;;;;;5.05;3.60;;;21.00;63.80;;;;;;4956485;28;20218;-77
2023/06/12 11:20:18;;;;;;;4.57;3.63;;;20.90;63.60;;;;;;4973986;28;20187;-77
2023/06/12 11:22:45;;;;;;;5.57;3.65;;;20.90;64.50;;;;;;4973476;28;20254;-76
2023/06/12 11:25:15;;;;;;;4.65;3.47;;;20.90;63.60;;;;;;4973449;28;20202;-77
2023/06/12 11:27:42;;;;;;;4.18;3.40;;;20.90;63.60;;;;;;4973564;28;20277;-76
2023/06/12 11:30:13;;;;;;;3.88;3.33;;;21.00;63.70;;;;;;4973810;28;20593;-78
2023/06/12 11:32:40;;;;;;;3.88;3.28;;;20.90;63.60;;;;;;4974097;28;20226;-77
2023/06/12 11:35:10;;;;;;;4.22;3.50;;;20.90;63.60;;;;;;4956537;28;20278;-76
2023/06/12 11:37:38;;;;;;;5.20;3.85;;;21.00;63.70;;;;;;4973059;28;20218;-76
2023/06/12 11:40:09;;;;;;;5.18;3.67;;;21.00;63.70;;;;;;4988302;28;20246;-76
2023/06/12 11:42:39;;;;;;;5.07;3.80;;;20.90;63.60;;;;;;4973202;28;20652;-77
2023/06/12 11:45:09;;;;;;;4.00;3.33;;;21.00;63.70;;;;;;4973395;28;20553;-75
2023/06/12 11:47:37;;;;;;;4.50;3.65;;;21.00;63.70;;;;;;4988442;28;20214;-77
2023/06/12 11:50:06;;;;;;;4.05;3.30;;;21.00;63.70;;;;;;4973358;28;20241;-76
2023/06/12 11:52:35;;;;;;;4.90;3.60;;;20.90;63.60;;;;;;4973474;28;20306;-78
2023/06/12 11:55:03;;;;;;;5.20;3.60;;;21.00;63.70;;;;;;4973543;28;20286;-76
2023/06/12 11:57:31;;;;;;;6.20;3.40;;;21.00;63.70;;;;;;4956610;28;20305;-76
2023/06/12 12:00:00;;;;;;;5.60;3.95;;;21.00;63.60;;;;;;4973493;28;20706;-75
2023/06/12 12:02:29;;;;;;;5.57;4.20;;;21.00;63.60;;;;;;4956098;28;20218;-76
2023/06/12 12:04:57;;;;;;;5.53;3.83;;;21.00;63.60;;;;;;4956263;28;20584;-76
2023/06/12 12:07:26;;;;;;;5.55;3.80;;;21.00;63.60;;;;;;4973515;28;20226;-77
2023/06/12 12:10:07;;;;;;;6.05;4.15;;;21.00;64.40;;;;;;4973178;28;20231;-76
2023/06/12 12:12:45;;;;;;;6.03;4.05;;;21.00;63.60;;;;;;4972927;28;20788;-77
2023/06/12 12:15:15;;;;;;;5.25;4.45;;;20.90;63.50;;;;;;4973382;28;20598;-76
2023/06/12 12:17:43;;;;;;;5.03;3.65;;;21.00;63.60;;;;;;4955937;28;20588;-77
2023/06/12 12:20:16;;;;;;;5.22;4.15;;;21.00;63.60;;;;;;4972991;28;20194;-76
2023/06/12 12:22:44;;;;;;;4.82;4.22;;;20.90;63.50;;;;;;4973204;28;20215;-75
2023/06/12 12:25:16;;;;;;;5.97;4.38;;;21.00;63.60;;;;;;4973250;28;20625;-76
2023/06/12 12:27:45;;;;;;;6.80;4.50;;;20.90;63.50;;;;;;4973215;28;20234;-77
2023/06/12 12:30:17;;;;;;;5.45;4.55;;;21.00;63.60;;;;;;4973188;28;20218;-76
2023/06/12 12:32:46;;;;;;;7.18;4.30;;;21.00;63.60;;;;;;4955780;28;20225;-76
2023/06/12 12:35:14;;;;;;;5.88;4.55;;;21.00;64.40;;;;;;4973444;28;20274;-77
2023/06/12 12:37:41;;;;;;;4.97;4.40;;;21.00;63.60;;;;;;4972906;28;20675;-76
2023/06/12 12:40:10;;;;;;;5.53;4.40;;;21.00;63.60;;;;;;4973139;28;20294;-76
2023/06/12 12:42:38;;;;;;;5.78;4.35;;;21.00;63.60;;;;;;4955275;28;20238;-76
2023/06/12 12:45:06;;;;;;;5.13;4.20;;;21.00;63.60;;;;;;4973061;28;20582;-76
2023/06/12 12:47:35;;;;;;;6.05;4.90;;;20.90;63.50;;;;;;4956198;28;20222;-78
2023/06/12 12:50:04;;;;;;;6.18;4.80;;;21.00;63.60;;;;;;4959108;28;20205;-77
2023/06/12 12:52:32;;;;;;;5.57;4.25;;;21.00;63.70;;;;;;4976253;28;20219;-76
2023/06/12 12:54:59;;;;;;;8.63;4.80;;;20.90;63.50;;;;;;4976707;28;20282;-76